Time;durP1;ratioP1;P1;durP2;ratioP2;P2;SDS_P1;SDS_P2;PMS_P1;PMS_P2;Temp;Humidity;BMP_temperature;BMP_pressure;BME280_temperature;BME280_humidity;BME280_pressure;Samples;Min_cycle;Max_cycle;Signal;HPM_P1;HPM_P2
2023/02/23 00:00:27;;;;;;;19.77;17.63;;;;;;;8.97;95.89;153662.81;4915934;29;20456;-80
2023/02/23 00:02:57;;;;;;;21.70;17.53;;;;;;;8.98;95.57;153666.66;4919639;29;20451;-79
2023/02/23 00:05:24;;;;;;;21.67;17.00;;;;;;;9.00;96.00;153670.56;4921336;29;20987;-79
2023/02/23 00:07:51;;;;;;;23.20;17.60;;;;;;;9.00;95.91;153671.81;4943425;29;20437;-79
2023/02/23 00:10:20;;;;;;;20.47;17.10;;;;;;;9.01;96.38;153674.44;4924071;29;20563;-80
2023/02/23 00:12:48;;;;;;;19.90;15.93;;;;;;;9.01;95.73;153674.44;4908365;29;20436;-79
2023/02/23 00:15:16;;;;;;;23.37;17.90;;;;;;;9.02;96.58;153675.72;4917845;29;20543;-79
2023/02/23 00:17:46;;;;;;;21.13;17.17;;;;;;;9.02;96.23;153677.03;4899873;29;20797;-79
2023/02/23 00:20:15;;;;;;;21.40;17.63;;;;;;;9.03;96.36;153679.59;4911999;29;20457;-79
2023/02/23 00:22:42;;;;;;;20.23;17.03;;;;;;;9.04;95.80;153680.88;4898694;29;20445;-79
2023/02/23 00:25:11;;;;;;;21.97;16.47;;;;;;;9.05;96.51;153683.50;4910605;29;20469;-79
2023/02/23 00:27:43;;;;;;;24.23;17.20;;;;;;;9.04;97.31;153682.19;4927856;29;20456;-79
2023/02/23 00:30:11;;;;;;;20.17;16.53;;;;;;;9.07;97.37;153688.66;4915874;29;20885;-79
2023/02/23 00:32:40;;;;;;;20.13;17.87;;;;;;;9.09;98.48;153693.81;4927097;29;20465;-79
2023/02/23 00:35:10;;;;;;;20.97;17.33;;;;;;;9.10;99.10;153696.41;4911487;29;20475;-79
2023/02/23 00:37:38;;;;;;;21.47;17.43;;;;;;;9.09;99.32;153695.13;4895974;29;20486;-79
2023/02/23 00:40:15;;;;;;;27.00;17.90;;;;;;;9.11;99.55;153698.97;4929676;29;20437;-79
2023/02/23 00:42:44;;;;;;;20.47;16.73;;;;;;;9.10;100.00;153696.41;4911354;29;20472;-79
2023/02/23 00:45:11;;;;;;;24.47;18.27;;;;;;;9.10;100.00;153696.41;4927032;29;20517;-79
2023/02/23 00:47:42;;;;;;;22.43;17.73;;;;;;;9.08;100.00;153692.50;4922444;29;20485;-79
2023/02/23 00:50:13;;;;;;;23.43;17.13;;;;;;;9.07;100.00;153688.66;4908013;29;20484;-79
2023/02/23 00:52:41;;;;;;;20.90;18.03;;;;;;;9.04;100.00;153680.88;4914641;29;20444;-79
2023/02/23 00:55:09;;;;;;;22.60;17.10;;;;;;;9.02;100.00;153677.03;4911416;29;21037;-79
2023/02/23 00:57:36;;;;;;;21.30;17.37;;;;;;;9.01;100.00;153673.13;4931520;29;20469;-79
2023/02/23 01:00:12;;;;;;;23.97;18.83;;;;;;;9.00;100.00;153670.56;4918570;29;20452;-79
2023/02/23 01:02:41;;;;;;;21.27;17.37;;;;;;;8.98;100.00;153665.34;4914729;29;20461;-79
2023/02/23 01:05:10;;;;;;;23.77;18.43;;;;;;;8.95;100.00;153657.59;4897828;29;20460;-80
2023/02/23 01:07:37;;;;;;;20.17;16.80;;;;;;;8.95;100.00;153657.59;4932231;29;20460;-79
2023/02/23 01:10:17;;;;;;;22.10;18.23;;;;;;;8.94;100.00;153655.03;4919542;29;20473;-79
2023/02/23 01:12:46;;;;;;;21.87;17.90;;;;;;;8.93;100.00;153653.72;4915000;29;20821;-79
2023/02/23 01:15:13;;;;;;;24.80;19.47;;;;;;;8.92;100.00;153649.88;4905113;29;20473;-79
2023/02/23 01:17:42;;;;;;;22.80;19.10;;;;;;;8.91;100.00;153647.28;4908048;29;20488;-79
2023/02/23 01:20:16;;;;;;;20.87;17.20;;;;;;;8.92;100.00;153649.88;4929382;29;20453;-79
2023/02/23 01:22:44;;;;;;;22.77;19.23;;;;;;;8.91;100.00;153647.28;4897033;29;20453;-79
2023/02/23 01:25:12;;;;;;;23.20;18.70;;;;;;;8.89;100.00;153642.13;4892839;29;20479;-79
2023/02/23 01:27:39;;;;;;;24.20;19.17;;;;;;;8.88;100.00;153640.81;4907008;29;20498;-80
2023/02/23 01:30:11;;;;;;;22.40;18.40;;;;;;;8.87;100.00;153638.22;4931291;29;20545;-79
2023/02/23 01:32:39;;;;;;;23.00;17.70;;;;;;;8.87;100.00;153636.94;4899626;29;20973;-79
2023/02/23 01:35:08;;;;;;;25.00;20.23;;;;;;;8.86;100.00;153635.66;4912349;29;20531;-79
2023/02/23 01:37:35;;;;;;;21.20;18.07;;;;;;;8.85;100.00;153633.03;4915604;29;20480;-80
2023/02/23 01:40:09;;;;;;;22.50;19.00;;;;;;;8.84;100.00;153630.44;4925843;29;20445;-79
2023/02/23 01:42:40;;;;;;;23.33;17.97;;;;;;;8.85;100.00;153631.75;4898126;29;20476;-80
2023/02/23 01:45:22;;;;;;;22.17;18.07;;;;;;;8.84;100.00;153630.44;4913522;29;20467;-79
2023/02/23 01:47:49;;;;;;;30.60;18.83;;;;;;;8.82;100.00;153623.97;4912964;29;20952;-79
2023/02/23 01:50:18;;;;;;;24.10;17.70;;;;;;;8.82;100.00;153623.97;4901483;29;20455;-79
2023/02/23 01:52:47;;;;;;;22.70;18.73;;;;;;;8.82;100.00;153623.97;4918697;29;20446;-79
2023/02/23 01:55:14;;;;;;;22.57;18.47;;;;;;;8.82;100.00;153623.97;4916192;29;20472;-80
2023/02/23 01:57:42;;;;;;;23.33;18.67;;;;;;;8.79;100.00;153617.50;4916033;29;20488;-79
2023/02/23 02:00:12;;;;;;;23.23;17.90;;;;;;;8.80;100.00;153618.81;4918169;29;20444;-79
2023/02/23 02:02:40;;;;;;;22.13;16.80;;;;;;;8.81;100.00;153621.41;4915753;29;20516;-79
2023/02/23 02:05:13;;;;;;;23.43;17.00;;;;;;;8.79;100.00;153617.50;4920108;29;20528;-79
2023/02/23 02:07:44;;;;;;;22.30;18.33;;;;;;;8.76;100.00;153608.50;4933733;29;20644;-79
2023/02/23 02:12:56;;;;;;;24.73;18.90;;;;;;;8.76;100.00;153608.50;4911045;29;20908;-79
2023/02/23 02:15:30;;;;;;;22.93;17.90;;;;;;;8.75;100.00;153607.19;4931078;29;20476;-79
2023/02/23 02:18:08;;;;;;;21.57;16.97;;;;;;;8.75;100.00;153607.19;4909986;29;20477;-79
2023/02/23 02:21:05;;;;;;;19.30;15.77;;;;;;;8.74;100.00;153603.28;4935301;29;20546;-79
2023/02/23 02:23:55;;;;;;;20.30;15.70;;;;;;;8.75;100.00;153605.91;4933319;29;20452;-79
2023/02/23 02:26:34;;;;;;;29.40;17.73;;;;;;;8.73;100.00;153600.72;4899795;29;20496;-79
2023/02/23 02:29:35;;;;;;;23.93;15.07;;;;;;;8.73;100.00;153602.03;4914692;29;20445;-79
2023/02/23 02:32:54;;;;;;;19.00;15.87;;;;;;;8.73;100.00;153600.72;4915852;29;20990;-79
2023/02/23 02:35:56;;;;;;;18.53;15.70;;;;;;;8.75;100.00;153605.91;4902598;29;20572;-79
2023/02/23 02:38:34;;;;;;;19.47;15.10;;;;;;;8.70;100.00;153592.97;4907389;29;20469;-79
2023/02/23 02:41:04;;;;;;;22.17;16.07;;;;;;;8.71;100.00;153595.56;4912222;29;20456;-79
2023/02/23 02:43:39;;;;;;;19.87;16.30;;;;;;;8.70;100.00;153592.97;4914157;29;20608;-79
2023/02/23 02:46:11;;;;;;;23.20;17.60;;;;;;;8.70;100.00;153592.97;4930824;29;20487;-79
2023/02/23 02:48:42;;;;;;;23.17;16.93;;;;;;;8.69;100.00;153590.38;4915324;29;20559;-79
2023/02/23 02:51:16;;;;;;;22.27;17.23;;;;;;;8.67;100.00;153585.22;4917469;29;20484;-79
2023/02/23 02:53:49;;;;;;;19.80;15.60;;;;;;;8.65;100.00;153580.03;4933039;29;20535;-79
2023/02/23 02:56:18;;;;;;;21.30;16.30;;;;;;;8.66;100.00;153583.91;4913000;29;20457;-79
2023/02/23 02:58:48;;;;;;;18.70;16.10;;;;;;;8.67;100.00;153585.22;4933477;29;20463;-79
2023/02/23 04:19:13;;;;;;;16.37;14.20;;;;;;;8.59;100.00;153565.81;4908435;29;21006;-79
2023/02/23 04:21:40;;;;;;;19.23;14.57;;;;;;;8.59;100.00;153565.81;4934049;29;20547;-79
2023/02/23 04:24:07;;;;;;;17.90;14.20;;;;;;;8.58;100.00;153564.53;4912379;29;20489;-79
2023/02/23 04:26:34;;;;;;;17.67;15.43;;;;;;;8.58;100.00;153564.53;4928271;29;20479;-79
2023/02/23 04:29:00;;;;;;;16.33;14.17;;;;;;;8.58;100.00;153564.53;4930806;29;20452;-79
2023/02/23 04:31:27;;;;;;;19.80;15.87;;;;;;;8.57;100.00;153561.97;4934788;29;20452;-80
2023/02/23 04:33:55;;;;;;;17.90;15.40;;;;;;;8.56;100.00;153559.38;4933250;29;20542;-79
2023/02/23 04:36:23;;;;;;;15.77;14.03;;;;;;;8.58;100.00;153563.22;4934764;29;20935;-80
2023/02/23 04:38:50;;;;;;;17.90;14.43;;;;;;;8.57;100.00;153560.66;4945033;28;20482;-79
2023/02/23 04:41:16;;;;;;;17.97;14.53;;;;;;;8.56;100.00;153558.06;4952663;29;20448;-79
2023/02/23 04:43:43;;;;;;;16.20;13.50;;;;;;;8.55;100.00;153556.75;4935153;29;20439;-79
2023/02/23 04:46:10;;;;;;;18.27;14.70;;;;;;;8.55;100.00;153556.75;4943852;29;20532;-79
2023/02/23 04:48:36;;;;;;;15.50;13.83;;;;;;;8.56;100.00;153559.38;4932945;29;20516;-79
2023/02/23 04:51:05;;;;;;;16.53;14.80;;;;;;;8.55;100.00;153555.50;4917804;29;20551;-79
2023/02/23 04:53:32;;;;;;;17.10;14.60;;;;;;;8.56;100.00;153559.38;4952481;29;20908;-79
2023/02/23 04:55:58;;;;;;;15.77;13.80;;;;;;;8.55;100.00;153556.75;4929664;28;20474;-79
2023/02/23 04:58:25;;;;;;;16.50;14.07;;;;;;;8.55;100.00;153556.75;4943177;29;21072;-80
2023/02/23 05:00:52;;;;;;;16.17;14.20;;;;;;;8.53;100.00;153550.28;4932283;29;20468;-79
2023/02/23 05:03:19;;;;;;;16.77;13.50;;;;;;;8.52;100.00;153549.00;4949872;29;20543;-79
2023/02/23 05:05:46;;;;;;;16.73;14.00;;;;;;;8.53;100.00;153551.59;4940075;29;20492;-79
2023/02/23 05:08:14;;;;;;;16.37;14.63;;;;;;;8.51;100.00;153546.44;4928065;29;20449;-79
2023/02/23 05:10:40;;;;;;;20.17;15.80;;;;;;;8.51;100.00;153546.44;4929689;29;20460;-79
2023/02/23 05:13:07;;;;;;;16.13;14.17;;;;;;;8.49;100.00;153541.28;4923636;29;20436;-78
2023/02/23 05:15:34;;;;;;;16.40;14.70;;;;;;;8.48;100.00;153538.69;4929063;29;20479;-77
2023/02/23 05:18:00;;;;;;;18.53;15.70;;;;;;;8.47;100.00;153536.06;4941310;29;20512;-78
2023/02/23 05:20:27;;;;;;;18.63;15.87;;;;;;;8.50;100.00;153542.53;4944290;29;20451;-77
2023/02/23 05:22:54;;;;;;;15.17;13.67;;;;;;;8.47;100.00;153536.06;4913720;29;20458;-77
2023/02/23 05:25:22;;;;;;;18.93;15.90;;;;;;;8.48;100.00;153537.38;4942469;28;20512;-77
2023/02/23 05:27:48;;;;;;;20.07;15.63;;;;;;;8.46;100.00;153533.53;4925855;29;20484;-78
2023/02/23 05:30:15;;;;;;;17.60;15.07;;;;;;;8.46;100.00;153533.53;4902881;29;20883;-77
2023/02/23 05:32:42;;;;;;;20.87;14.80;;;;;;;8.46;100.00;153532.22;4916896;29;20546;-77
2023/02/23 05:35:09;;;;;;;20.50;15.67;;;;;;;8.45;100.00;153530.91;4915367;29;20478;-77
2023/02/23 05:37:36;;;;;;;17.27;15.47;;;;;;;8.48;100.00;153538.69;4920939;29;20789;-78
2023/02/23 05:40:05;;;;;;;18.03;13.70;;;;;;;8.48;100.00;153538.69;4932568;29;20833;-78
2023/02/23 05:42:33;;;;;;;17.37;14.43;;;;;;;8.45;100.00;153530.91;4911266;29;20555;-77
2023/02/23 05:44:59;;;;;;;15.63;13.90;;;;;;;8.46;100.00;153533.53;4922459;29;20471;-78
2023/02/23 05:47:26;;;;;;;16.40;14.13;;;;;;;8.44;100.00;153528.34;4911156;29;20552;-78
2023/02/23 05:49:53;;;;;;;15.00;12.90;;;;;;;8.44;100.00;153527.06;4908452;29;20449;-78
2023/02/23 05:52:19;;;;;;;16.23;13.20;;;;;;;8.44;100.00;153528.34;4925942;29;20464;-77
2023/02/23 05:54:48;;;;;;;17.40;14.27;;;;;;;8.45;100.00;153530.91;4935649;29;20475;-77
2023/02/23 05:57:15;;;;;;;20.53;13.37;;;;;;;8.47;100.00;153536.06;4924908;29;20461;-80
2023/02/23 05:59:43;;;;;;;17.50;13.87;;;;;;;8.45;100.00;153530.91;4913189;29;20464;-79
2023/02/23 06:02:10;;;;;;;15.50;12.40;;;;;;;8.46;100.00;153532.22;4922283;29;20459;-78
2023/02/23 06:04:37;;;;;;;15.40;13.23;;;;;;;8.43;100.00;153525.75;4926284;29;20444;-78
2023/02/23 06:07:03;;;;;;;16.33;12.53;;;;;;;8.44;100.00;153527.06;4921779;29;20468;-79
2023/02/23 06:09:30;;;;;;;13.77;12.37;;;;;;;8.45;100.00;153529.63;4905823;29;20465;-77
2023/02/23 06:12:02;;;;;;;15.40;11.73;;;;;;;8.45;100.00;153529.63;4905063;29;20460;-77
2023/02/23 06:14:28;;;;;;;14.27;12.77;;;;;;;8.44;100.00;153528.34;4892185;29;20460;-79
2023/02/23 06:16:59;;;;;;;16.37;12.40;;;;;;;8.44;100.00;153528.34;4901736;29;20457;-78
2023/02/23 06:19:26;;;;;;;14.43;11.07;;;;;;;8.46;100.00;153533.53;4902488;29;20449;-78
2023/02/23 06:21:53;;;;;;;12.70;11.30;;;;;;;8.48;100.00;153537.38;4918354;29;20476;-79
2023/02/23 06:24:20;;;;;;;16.13;13.00;;;;;;;8.46;100.00;153533.53;4907119;29;20800;-78
2023/02/23 06:26:47;;;;;;;15.63;12.93;;;;;;;8.48;100.00;153537.38;4895087;29;20488;-79
2023/02/23 06:29:14;;;;;;;19.17;14.87;;;;;;;8.46;100.00;153533.53;4919928;29;20508;-78
2023/02/23 06:31:41;;;;;;;14.83;12.27;;;;;;;8.46;100.00;153532.22;4917735;29;20458;-79
2023/02/23 06:34:10;;;;;;;13.33;10.50;;;;;;;8.47;100.00;153536.06;4908252;29;20488;-78
2023/02/23 06:36:37;;;;;;;14.03;11.67;;;;;;;8.46;100.00;153533.53;4910261;29;20525;-78
2023/02/23 06:39:04;;;;;;;12.63;11.20;;;;;;;8.47;100.00;153536.06;4912647;29;20854;-79
2023/02/23 06:41:32;;;;;;;12.43;11.10;;;;;;;8.44;100.00;153528.34;4921346;29;20461;-79
2023/02/23 06:43:59;;;;;;;14.27;11.10;;;;;;;8.44;100.00;153528.34;4922500;29;20489;-79
2023/02/23 06:46:25;;;;;;;12.27;11.03;;;;;;;8.45;100.00;153530.91;4922270;29;20543;-79
2023/02/23 06:48:55;;;;;;;15.10;11.93;;;;;;;8.47;100.00;153536.06;4909021;29;20460;-79
2023/02/23 06:51:25;;;;;;;15.00;10.40;;;;;;;8.46;100.00;153533.53;4912253;29;20479;-78
2023/02/23 06:53:52;;;;;;;13.13;10.70;;;;;;;8.49;100.00;153541.28;4924670;29;20464;-78
2023/02/23 06:56:20;;;;;;;12.20;10.73;;;;;;;8.50;100.00;153542.53;4923940;29;20517;-79
2023/02/23 06:58:46;;;;;;;12.53;10.87;;;;;;;8.51;100.00;153545.13;4922364;29;20460;-79
2023/02/23 07:01:13;;;;;;;13.33;10.50;;;;;;;8.51;100.00;153545.13;4911210;29;20504;-79
2023/02/23 07:03:40;;;;;;;13.63;11.30;;;;;;;8.51;100.00;153545.13;4920479;29;20944;-79
2023/02/23 07:06:16;;;;;;;14.23;10.97;;;;;;;8.50;100.00;153542.53;4920267;29;20659;-78
2023/02/23 07:08:44;;;;;;;13.07;10.40;;;;;;;8.51;100.00;153546.44;4913838;29;20548;-79
2023/02/23 07:11:12;;;;;;;12.37;9.33;;;;;;;8.53;100.00;153551.59;4923021;29;20457;-79
2023/02/23 07:13:39;;;;;;;11.93;9.40;;;;;;;8.54;100.00;153554.19;4919987;29;20445;-79
2023/02/23 07:16:07;;;;;;;13.47;10.73;;;;;;;8.54;100.00;153554.19;4922474;29;20580;-79
2023/02/23 07:18:34;;;;;;;12.30;10.20;;;;;;;8.55;100.00;153556.75;4911667;29;20544;-79
2023/02/23 07:21:00;;;;;;;11.83;10.20;;;;;;;8.55;100.00;153556.75;4924247;29;20453;-78
2023/02/23 07:23:27;;;;;;;11.10;9.80;;;;;;;8.57;100.00;153561.97;4887048;29;20462;-79
2023/02/23 07:25:56;;;;;;;14.17;10.07;;;;;;;8.61;100.00;153570.97;4917576;29;20846;-78
2023/02/23 07:28:24;;;;;;;12.00;9.80;;;;;;;8.61;100.00;153569.69;4923309;29;20532;-78
2023/02/23 07:30:51;;;;;;;11.03;9.20;;;;;;;8.62;100.00;153573.59;4920016;29;20556;-78
2023/02/23 07:33:17;;;;;;;13.67;10.30;;;;;;;8.65;100.00;153580.03;4904300;29;20484;-78
2023/02/23 07:35:44;;;;;;;11.60;9.50;;;;;;;8.67;100.00;153585.22;4922352;29;20903;-78
2023/02/23 07:38:12;;;;;;;11.63;10.30;;;;;;;8.66;100.00;153583.91;4910646;29;20465;-78
2023/02/23 07:40:41;;;;;;;12.77;10.70;;;;;;;8.70;100.00;153592.97;4912749;29;20818;-80
2023/02/23 07:43:09;;;;;;;12.40;9.63;;;;;;;8.73;100.00;153600.72;4924902;29;20477;-80
2023/02/23 07:45:35;;;;;;;12.77;11.00;;;;;;;8.76;100.00;153609.81;4923212;29;20460;-80
2023/02/23 07:48:02;;;;;;;16.20;11.80;;;;;;;8.81;100.00;153621.41;4908048;29;20465;-80
2023/02/23 07:50:29;;;;;;;15.43;11.77;;;;;;;8.85;100.00;153631.75;4923848;29;20461;-80
2023/02/23 07:52:55;;;;;;;14.60;11.73;;;;;;;8.87;100.00;153638.22;4920425;29;20574;-79
2023/02/23 07:55:22;;;;;;;15.53;11.67;;;;;;;8.89;100.00;153642.13;4917749;29;20473;-80
2023/02/23 07:57:49;;;;;;;13.60;11.10;;;;;;;8.91;100.00;153647.28;4922005;29;20576;-80
2023/02/23 08:00:18;;;;;;;14.63;12.07;;;;;;;8.93;100.00;153652.44;4924381;29;20559;-80
2023/02/23 08:02:45;;;;;;;12.23;10.77;;;;;;;8.96;100.00;153660.19;4894725;29;20528;-80
2023/02/23 08:05:12;;;;;;;13.13;11.00;;;;;;;9.01;100.00;153673.13;4922156;29;20452;-80
2023/02/23 08:07:39;;;;;;;11.90;10.30;;;;;;;9.03;100.00;153679.59;4906071;29;20453;-80
2023/02/23 08:10:07;;;;;;;13.50;11.70;;;;;;;9.08;100.00;153691.25;4919670;29;20533;-80
2023/02/23 08:12:33;;;;;;;11.30;9.83;;;;;;;9.07;100.00;153688.66;4910869;29;20588;-79
2023/02/23 08:15:00;;;;;;;12.93;11.20;;;;;;;9.11;100.00;153698.97;4919541;29;20666;-80
2023/02/23 08:17:29;;;;;;;15.30;10.13;;;;;;;9.14;100.00;153706.75;4905801;29;20457;-79
2023/02/23 08:19:55;;;;;;;15.07;9.57;;;;;;;9.18;100.00;153717.13;4885458;29;20944;-79
2023/02/23 08:22:22;;;;;;;11.23;8.63;;;;;;;9.18;100.00;153718.41;4909278;29;20489;-79
2023/02/23 08:24:51;;;;;;;11.37;8.90;;;;;;;9.21;100.00;153724.88;4905552;29;20445;-79
2023/02/23 08:27:18;;;;;;;11.93;9.50;;;;;;;9.24;100.00;153732.59;4916856;29;20457;-79
2023/02/23 08:29:45;;;;;;;10.10;8.60;;;;;;;9.27;100.00;153740.38;4923440;29;20952;-79
2023/02/23 08:32:12;;;;;;;11.90;8.93;;;;;;;9.29;100.00;153745.59;4913730;29;20536;-79
2023/02/23 08:34:42;;;;;;;10.20;8.70;;;;;;;9.32;100.00;153753.31;4898616;29;20479;-79
2023/02/23 08:37:09;;;;;;;9.60;8.47;;;;;;;9.37;100.00;153764.97;4904236;29;20990;-81
2023/02/23 08:39:36;;;;;;;12.17;8.57;;;;;;;9.40;100.00;153774.00;4921499;29;21069;-79
2023/02/23 08:42:03;;;;;;;9.70;8.07;;;;;;;9.42;100.00;153777.91;4896440;29;20461;-79
2023/02/23 08:44:29;;;;;;;10.60;9.10;;;;;;;9.44;100.00;153784.38;4904898;29;20557;-79
2023/02/23 08:46:57;;;;;;;11.33;7.43;;;;;;;9.49;100.00;153797.31;4905301;29;20455;-79
2023/02/23 08:49:24;;;;;;;8.87;7.33;;;;;;;9.48;100.00;153794.69;4891347;29;20449;-79
2023/02/23 08:51:52;;;;;;;9.50;7.40;;;;;;;9.53;100.00;153807.63;4910854;29;20896;-79
2023/02/23 08:54:19;;;;;;;10.40;8.33;;;;;;;9.60;100.00;153825.78;4915719;29;20456;-80
2023/02/23 08:56:46;;;;;;;11.93;8.43;;;;;;;9.68;100.00;153846.47;4903210;29;20484;-80
2023/02/23 08:59:13;;;;;;;10.77;8.07;;;;;;;9.73;100.00;153859.41;4885533;29;20468;-80
2023/02/23 09:01:41;;;;;;;14.20;8.80;;;;;;;9.82;100.00;153882.69;4890419;29;20525;-79
2023/02/23 09:04:07;;;;;;;10.53;9.20;;;;;;;9.86;100.00;153890.44;4916832;29;20445;-79
2023/02/23 09:06:35;;;;;;;8.80;7.90;;;;;;;9.89;100.00;153898.22;4906858;29;20449;-79
2023/02/23 09:09:03;;;;;;;10.23;8.37;;;;;;;9.94;100.00;153911.16;4917996;29;20464;-80
2023/02/23 09:11:30;;;;;;;10.30;8.20;;;;;;;10.00;100.00;153926.69;4912887;29;20458;-79
2023/02/23 09:13:57;;;;;;;9.73;6.80;;;;;;;10.05;100.00;153940.94;4917052;29;20452;-79
2023/02/23 09:16:23;;;;;;;10.83;7.57;;;;;;;10.09;100.00;153949.97;4922292;29;20488;-79
2023/02/23 09:18:50;;;;;;;10.77;8.17;;;;;;;10.12;100.00;153959.09;4922634;29;20477;-80
2023/02/23 09:21:20;;;;;;;10.87;7.70;;;;;;;10.15;100.00;153966.88;4910148;29;20552;-80
2023/02/23 09:23:50;;;;;;;10.97;7.37;;;;;;;10.14;100.00;153963.00;4921753;29;20548;-79
2023/02/23 09:26:19;;;;;;;8.00;6.30;;;;;;;10.16;100.00;153969.47;4910243;29;20473;-79
2023/02/23 09:28:46;;;;;;;11.83;7.90;;;;;;;10.16;100.00;153968.16;4906273;29;20453;-79
2023/02/23 09:31:14;;;;;;;12.60;8.40;;;;;;;10.16;100.00;153968.16;4917898;29;20825;-79
2023/02/23 09:33:41;;;;;;;11.07;7.60;;;;;;;10.20;100.00;153978.50;4922738;29;20952;-80
2023/02/23 09:36:11;;;;;;;13.00;7.77;;;;;;;10.19;100.00;153977.19;4889314;29;20476;-79
2023/02/23 09:38:38;;;;;;;9.83;7.37;;;;;;;10.23;100.00;153987.56;4903630;29;20790;-79
2023/02/23 09:41:17;;;;;;;12.80;8.00;;;;;;;10.25;100.00;153992.75;4916946;29;20461;-80
2023/02/23 09:43:51;;;;;;;9.90;8.00;;;;;;;10.29;100.00;154001.81;4917453;29;20453;-79
2023/02/23 09:46:25;;;;;;;13.33;7.80;;;;;;;10.33;100.00;154012.16;4905861;29;20454;-79
2023/02/23 09:48:54;;;;;;;18.47;10.00;;;;;;;10.39;100.00;154027.69;4907826;29;20449;-79
2023/02/23 09:51:21;;;;;;;16.83;8.40;;;;;;;10.41;100.00;154032.88;4921400;29;20473;-79
2023/02/23 09:53:51;;;;;;;19.40;9.73;;;;;;;10.42;100.00;154035.47;4904975;29;20811;-79
2023/02/23 09:56:23;;;;;;;10.00;7.90;;;;;;;10.49;100.00;154052.28;4922104;29;20487;-80
2023/02/23 09:58:52;;;;;;;13.30;8.47;;;;;;;10.54;100.00;154065.28;4902588;29;20556;-79
2023/02/23 10:01:44;;;;;;;9.70;7.13;;;;;;;10.63;100.00;154088.56;4920625;29;20464;-79
2023/02/23 10:04:15;;;;;;;9.63;6.90;;;;;;;10.78;100.00;154127.38;4879117;29;20573;-79
2023/02/23 10:06:45;;;;;;;14.30;7.60;;;;;;;10.82;100.00;154139.06;4909738;29;20552;-79
2023/02/23 10:09:19;;;;;;;9.83;6.90;;;;;;;10.88;100.00;154154.56;4917050;29;20964;-80
2023/02/23 10:11:51;;;;;;;11.70;6.73;;;;;;;10.94;100.00;154170.13;4923122;29;20787;-80
2023/02/23 10:14:34;;;;;;;9.60;7.10;;;;;;;11.03;100.00;154192.16;4912146;29;20449;-80
2023/02/23 10:17:13;;;;;;;11.53;6.83;;;;;;;11.15;100.00;154221.94;4924049;29;20480;-80
2023/02/23 10:19:48;;;;;;;9.83;7.70;;;;;;;11.20;100.00;154234.94;4920503;29;20485;-79
2023/02/23 10:22:16;;;;;;;9.10;6.90;;;;;;;11.31;100.00;154263.38;4920783;29;20536;-79
2023/02/23 10:24:45;;;;;;;7.47;6.33;;;;;;;11.33;100.00;154269.84;4922846;28;20484;-80
2023/02/23 10:27:16;;;;;;;7.50;6.50;;;;;;;11.40;100.00;154286.72;4921250;29;20469;-79
2023/02/23 10:29:49;;;;;;;8.90;8.00;;;;;;;11.49;100.00;154311.31;4919274;29;20447;-80
2023/02/23 10:32:21;;;;;;;9.43;6.50;;;;;;;11.56;100.00;154328.19;4922394;29;20995;-80
2023/02/23 10:34:50;;;;;;;9.63;6.73;;;;;;;11.61;100.00;154341.16;4918520;29;20456;-79
2023/02/23 10:37:17;;;;;;;6.77;6.03;;;;;;;11.61;100.00;154341.16;4926595;29;20924;-79
2023/02/23 10:39:45;;;;;;;8.57;6.90;;;;;;;11.67;100.00;154356.72;4924690;29;20809;-80
2023/02/23 10:42:20;;;;;;;8.73;7.70;;;;;;;11.67;100.00;154356.72;4920902;29;20465;-80
2023/02/23 10:44:49;;;;;;;9.80;6.93;;;;;;;11.67;100.00;154356.72;4923264;29;20455;-80
2023/02/23 10:47:18;;;;;;;11.50;7.17;;;;;;;11.73;100.00;154372.28;4922269;29;20468;-80
2023/02/23 10:49:46;;;;;;;9.20;6.90;;;;;;;11.82;100.00;154394.31;4913448;29;20520;-78
2023/02/23 10:52:16;;;;;;;9.70;7.27;;;;;;;11.86;100.00;154405.97;4909738;29;21047;-78
2023/02/23 10:54:46;;;;;;;7.43;6.30;;;;;;;11.88;100.00;154409.88;4920195;29;20457;-78
2023/02/23 10:57:21;;;;;;;7.07;6.07;;;;;;;11.97;100.00;154434.50;4905426;29;20487;-78
2023/02/23 11:00:25;;;;;;;8.20;6.10;;;;;;;12.10;100.00;154466.88;4925260;29;20479;-77
2023/02/23 11:02:53;;;;;;;7.10;5.53;;;;;;;11.98;99.00;154437.09;4923004;29;20465;-78
2023/02/23 11:05:32;;;;;;;6.73;4.70;;;;;;;11.94;99.45;154425.47;4922252;29;20445;-77
2023/02/23 11:08:10;;;;;;;10.53;5.70;;;;;;;11.94;100.00;154426.72;4907691;29;20504;-77
2023/02/23 11:10:37;;;;;;;7.40;5.83;;;;;;;11.98;100.00;154435.81;4913008;29;20512;-77
2023/02/23 11:13:04;;;;;;;7.40;4.70;;;;;;;11.92;97.61;154421.53;4906463;29;20457;-78
2023/02/23 11:15:33;;;;;;;9.90;5.47;;;;;;;11.94;96.84;154426.72;4922171;29;20458;-77
2023/02/23 11:18:02;;;;;;;6.40;4.83;;;;;;;11.97;95.03;154434.50;4922379;29;20487;-77
2023/02/23 11:20:32;;;;;;;7.67;4.63;;;;;;;12.06;95.93;154457.84;4921290;29;20464;-78
2023/02/23 11:22:58;;;;;;;6.10;4.17;;;;;;;12.13;98.86;154475.97;4922493;29;20449;-79
2023/02/23 11:25:29;;;;;;;6.20;4.33;;;;;;;12.18;95.83;154488.94;4889856;29;20924;-78
2023/02/23 11:27:57;;;;;;;6.47;3.87;;;;;;;12.24;93.44;154503.19;4918874;29;20582;-77
2023/02/23 11:30:28;;;;;;;5.47;3.63;;;;;;;12.32;95.65;154523.94;4918904;29;20453;-77
2023/02/23 11:33:01;;;;;;;8.17;3.90;;;;;;;12.29;91.32;154514.84;4920166;29;20887;-78
2023/02/23 11:35:31;;;;;;;3.90;3.20;;;;;;;12.37;93.99;154535.59;4920966;29;20484;-78
2023/02/23 11:37:59;;;;;;;8.60;3.50;;;;;;;12.45;93.66;154556.34;4919661;29;20530;-78
2023/02/23 11:40:27;;;;;;;4.70;3.50;;;;;;;12.49;93.30;154566.75;4923001;29;20866;-78
2023/02/23 11:42:56;;;;;;;7.37;4.03;;;;;;;12.50;91.23;154570.63;4903630;29;20453;-78
2023/02/23 11:45:24;;;;;;;12.63;3.80;;;;;;;12.55;90.64;154583.59;4905732;29;20461;-78
2023/02/23 11:47:53;;;;;;;6.40;3.37;;;;;;;12.56;87.71;154584.91;4916911;29;20449;-79
2023/02/23 11:50:31;;;;;;;4.80;3.20;;;;;;;12.58;85.89;154590.06;4923879;29;20437;-78
2023/02/23 11:53:01;;;;;;;10.30;4.90;;;;;;;12.53;87.21;154577.09;4921501;29;20449;-78
2023/02/23 11:55:30;;;;;;;10.27;6.50;;;;;;;12.67;88.52;154614.75;4922196;29;20453;-79
2023/02/23 11:58:08;;;;;;;8.90;8.00;;;;;;;12.58;90.04;154590.06;4925117;29;21167;-78
2023/02/23 12:00:35;;;;;;;9.03;8.03;;;;;;;12.53;90.26;154577.09;4923637;29;21125;-80
2023/02/23 12:03:04;;;;;;;10.67;8.30;;;;;;;12.41;90.25;154547.31;4918378;29;20465;-80
2023/02/23 12:05:33;;;;;;;11.00;7.70;;;;;;;12.43;90.78;154551.19;4923441;29;20488;-80
2023/02/23 12:08:04;;;;;;;10.10;7.40;;;;;;;12.41;90.26;154546.00;4920986;29;20560;-80
2023/02/23 12:10:34;;;;;;;12.80;7.60;;;;;;;12.43;90.66;154551.19;4908204;29;21411;-80
2023/02/23 12:13:09;;;;;;;9.30;7.20;;;;;;;12.33;91.20;154525.25;4922588;29;20484;-80
2023/02/23 12:15:43;;;;;;;13.60;6.30;;;;;;;12.35;89.57;154531.75;4923912;29;20467;-80
2023/02/23 12:18:17;;;;;;;9.70;6.40;;;;;;;12.30;90.03;154517.47;4919720;29;20493;-80
2023/02/23 12:20:47;;;;;;;11.27;7.63;;;;;;;12.46;89.82;154558.97;4916263;29;20468;-80
2023/02/23 12:23:18;;;;;;;10.90;7.47;;;;;;;12.36;89.89;154533.03;4917181;29;20470;-80
2023/02/23 12:25:47;;;;;;;11.27;7.60;;;;;;;12.28;90.02;154512.31;4914461;29;20568;-80
2023/02/23 12:28:20;;;;;;;9.20;7.30;;;;;;;12.26;89.90;154508.38;4911973;29;20448;-80
2023/02/23 12:30:50;;;;;;;10.40;7.73;;;;;;;12.20;90.52;154494.13;4910977;29;20471;-80
2023/02/23 12:33:20;;;;;;;12.77;7.27;;;;;;;12.25;90.74;154505.81;4919641;29;20486;-80
2023/02/23 12:35:54;;;;;;;13.40;7.93;;;;;;;12.12;90.91;154473.41;4923047;29;20476;-80
2023/02/23 12:38:32;;;;;;;10.47;7.93;;;;;;;12.11;91.23;154470.81;4922708;29;20814;-80
2023/02/23 12:41:03;;;;;;;11.40;7.90;;;;;;;12.05;91.90;154453.94;4921979;29;20922;-80
2023/02/23 12:43:36;;;;;;;11.87;7.50;;;;;;;12.04;90.69;154451.38;4904164;29;20514;-80
2023/02/23 12:46:09;;;;;;;9.13;7.90;;;;;;;11.95;91.39;154429.31;4906972;29;20453;-80